Time;durP1;ratioP1;P1;durP2;ratioP2;P2;SDS_P1;SDS_P2;PMS_P1;PMS_P2;Temp;Humidity;BMP_temperature;BMP_pressure;BME280_temperature;BME280_humidity;BME280_pressure;Samples;Min_cycle;Max_cycle;Signal;HPM_P1;HPM_P2
2023/06/03 00:01:58;;;;;;;;;;;;;;;;;;6256715;22;19915;-94
2023/06/03 00:04:28;;;;;;;;;;;;;;;;;;6282665;22;19975;-96
2023/06/03 00:06:57;;;;;;;;;;;;;;;;;;6284536;22;19919;-94
2023/06/03 00:09:23;;;;;;;;;;;;;;;;;;6257790;22;20277;-96
2023/06/03 00:11:49;;;;;;;;;;;;;;;;;;6258393;22;20067;-96
2023/06/03 00:14:21;;;;;;;;;;;;;;;;;;6284256;22;19922;-95
2023/06/03 00:17:01;;;;;;;;;;;;;;;;;;6290210;22;19919;-95
2023/06/03 00:19:30;;;;;;;;;;;;;;;;;;6223586;23;19951;-93
2023/06/03 00:22:02;;;;;;;;;;;;;;;;;;6198344;23;19916;-95
2023/06/03 00:24:33;;;;;;;;;;;;;;;;;;6222903;23;20317;-96
2023/06/03 00:26:59;;;;;;;;;;;;;;;;;;6220778;23;20054;-93
2023/06/03 00:29:34;;;;;;;;;;;;;;;;;;6219356;23;19920;-95
2023/06/03 00:32:03;;;;;;;;;;;;;;;;;;6193334;23;20045;-92
2023/06/03 00:34:29;;;;;;;;;;;;;;;;;;6217021;23;19927;-91
2023/06/03 00:36:56;;;;;;;;;;;;;;;;;;6220851;23;19973;-95
2023/06/03 00:39:22;;;;;;;;;;;;;;;;;;6193257;23;19986;-94
2023/06/03 00:41:48;;;;;;;;;;;;;;;;;;6216300;23;19916;-95
2023/06/03 00:44:14;;;;;;;;;;;;;;;;;;6190357;23;19922;-96
2023/06/03 00:46:43;;;;;;;;;;;;;;;;;;6189058;23;19920;-95
2023/06/03 00:49:09;;;;;;;;;;;;;;;;;;6215595;23;19998;-94
2023/06/03 00:51:35;;;;;;;;;;;;;;;;;;6254849;22;19964;-96
2023/06/03 00:54:01;;;;;;;;;;;;;;;;;;6282032;22;19942;-94
2023/06/03 00:56:27;;;;;;;;;;;;;;;;;;6282577;22;19964;-93
2023/06/03 00:58:53;;;;;;;;;;;;;;;;;;6256458;22;20036;-94
2023/06/03 01:01:24;;;;;;;;;;;;;;;;;;6258067;22;19919;-94
2023/06/03 01:03:56;;;;;;;;;;;;;;;;;;6258257;22;19955;-94
2023/06/03 01:06:22;;;;;;;;;;;;;;;;;;6284817;22;19921;-96
2023/06/03 01:08:50;;;;;;;;;;;;;;;;;;6262712;22;19915;-95
2023/06/03 01:11:19;;;;;;;;;;;;;;;;;;6261509;22;19938;-94
2023/06/03 01:13:48;;;;;;;;;;;;;;;;;;6288545;22;19915;-95
2023/06/03 01:16:15;;;;;;;;;;;;;;;;;;6286918;22;20003;-95
2023/06/03 01:18:41;;;;;;;;;;;;;;;;;;6260417;22;19964;-94
2023/06/03 01:21:07;;;;;;;;;;;;;;;;;;6262518;22;19915;-93
2023/06/03 01:23:36;;;;;;;;;;;;;;;;;;6287193;22;19915;-96
2023/06/03 01:26:04;;;;;;;;;;;;;;;;;;6263567;22;19942;-96
2023/06/03 01:28:39;;;;;;;;;;;;;;;;;;6267558;22;20018;-95
2023/06/03 01:31:05;;;;;;;;;;;;;;;;;;6291604;22;19915;-95
2023/06/03 01:33:31;;;;;;;;;;;;;;;;;;6266144;22;20001;-94
2023/06/03 01:36:00;;;;;;;;;;;;;;;;;;6266331;22;19915;-94
2023/06/03 01:38:26;;;;;;;;;;;;;;;;;;6261488;22;19927;-95
2023/06/03 01:43:54;;;;;;;;;;;;;;;;;;6199661;23;19904;-92
2023/06/03 01:46:22;;;;;;;;;;;;;;;;;;6197642;23;19916;-91
2023/06/03 01:49:06;;;;;;;;;;;;;;;;;;6276448;22;19926;-91
2023/06/03 01:51:39;;;;;;;;;;;;;;;;;;6292392;22;19926;-92
2023/06/03 01:54:26;;;;;;;;;;;;;;;;;;6267843;22;19923;-96
2023/06/03 01:56:51;;;;;;;;;;;;;;;;;;6280666;22;19929;-93
2023/06/03 01:59:17;;;;;;;;;;;;;;;;;;6255610;22;19915;-92
2023/06/03 02:01:43;;;;;;;;;;;;;;;;;;6255505;22;19951;-94
2023/06/03 02:04:09;;;;;;;;;;;;;;;;;;6255739;22;19964;-93
2023/06/03 02:06:36;;;;;;;;;;;;;;;;;;6254931;22;19989;-94
2023/06/03 02:09:02;;;;;;;;;;;;;;;;;;6256355;22;19922;-94
2023/06/03 02:11:28;;;;;;;;;;;;;;;;;;6256278;22;19961;-93
2023/06/03 02:13:54;;;;;;;;;;;;;;;;;;6282727;22;19922;-91
2023/06/03 02:16:20;;;;;;;;;;;;;;;;;;6283150;22;19915;-93
2023/06/03 02:18:46;;;;;;;;;;;;;;;;;;6281668;22;19922;-96
2023/06/03 02:21:21;;;;;;;;;;;;;;;;;;6263105;22;19921;-93
2023/06/03 02:23:56;;;;;;;;;;;;;;;;;;6287099;22;19915;-96
2023/06/03 02:26:22;;;;;;;;;;;;;;;;;;6312535;22;19915;-94
2023/06/03 02:28:48;;;;;;;;;;;;;;;;;;6260574;22;19958;-95
2023/06/03 02:31:14;;;;;;;;;;;;;;;;;;6261359;22;19930;-95
2023/06/03 02:33:40;;;;;;;;;;;;;;;;;;6262102;22;19930;-95
2023/06/03 02:36:06;;;;;;;;;;;;;;;;;;6260132;22;19919;-96
2023/06/03 02:38:32;;;;;;;;;;;;;;;;;;6257119;22;19922;-95
2023/06/03 02:40:58;;;;;;;;;;;;;;;;;;6281144;22;19915;-94
2023/06/03 02:43:24;;;;;;;;;;;;;;;;;;6283090;22;19993;-95
2023/06/03 02:45:50;;;;;;;;;;;;;;;;;;6261610;22;19915;-94
2023/06/03 02:48:19;;;;;;;;;;;;;;;;;;6314252;22;19923;-95
2023/06/03 02:50:45;;;;;;;;;;;;;;;;;;6285742;22;19922;-94
2023/06/03 02:53:11;;;;;;;;;;;;;;;;;;6260651;22;19919;-93
2023/06/03 02:55:40;;;;;;;;;;;;;;;;;;6260614;22;19921;-95
2023/06/03 02:58:06;;;;;;;;;;;;;;;;;;6256317;22;19994;-95
2023/06/03 03:00:32;;;;;;;;;;;;;;;;;;6310804;22;19926;-96
2023/06/03 03:02:58;;;;;;;;;;;;;;;;;;6284977;22;19986;-95
2023/06/03 03:05:24;;;;;;;;;;;;;;;;;;6261912;22;19919;-95
2023/06/03 03:07:54;;;;;;;;;;;;;;;;;;6263190;22;19945;-92
2023/06/03 03:10:20;;;;;;;;;;;;;;;;;;6283490;22;19975;-93
2023/06/03 03:12:48;;;;;;;;;;;;;;;;;;6313683;22;19957;-94
2023/06/03 03:15:17;;;;;;;;;;;;;;;;;;6290824;22;19919;-93
2023/06/03 03:17:49;;;;;;;;;;;;;;;;;;6267126;22;19915;-93
2023/06/03 03:20:16;;;;;;;;;;;;;;;;;;6267656;22;19919;-94
2023/06/03 03:22:44;;;;;;;;;;;;;;;;;;6267688;22;19988;-93
2023/06/03 03:25:10;;;;;;;;;;;;;;;;;;6293396;22;19922;-94
2023/06/03 03:27:35;;;;;;;;;;;;;;;;;;6282929;22;19919;-93
2023/06/03 03:30:01;;;;;;;;;;;;;;;;;;6282923;22;20010;-92
2023/06/03 03:32:27;;;;;;;;;;;;;;;;;;6256199;22;19958;-93
2023/06/03 03:34:54;;;;;;;;;;;;;;;;;;6256320;22;20333;-90
2023/06/03 03:37:20;;;;;;;;;;;;;;;;;;6281548;22;19921;-93
2023/06/03 03:39:46;;;;;;;;;;;;;;;;;;6256738;22;19914;-93
2023/06/03 03:42:12;;;;;;;;;;;;;;;;;;6281729;22;19922;-93
2023/06/03 03:44:38;;;;;;;;;;;;;;;;;;6310197;22;20003;-92
2023/06/03 03:47:04;;;;;;;;;;;;;;;;;;6259887;22;19950;-95
2023/06/03 03:49:33;;;;;;;;;;;;;;;;;;6287691;22;20297;-95
2023/06/03 03:51:59;;;;;;;;;;;;;;;;;;6262157;22;19941;-94
2023/06/03 03:57:51;;;;;;;;;;;;;;;;;;6233254;22;19982;-92
2023/06/03 04:00:20;;;;;;;;;;;;;;;;;;6299007;22;19915;-94
2023/06/03 04:02:46;;;;;;;;;;;;;;;;;;6271820;22;19926;-93
2023/06/03 04:05:22;;;;;;;;;;;;;;;;;;6266751;22;19915;-93
2023/06/03 04:07:51;;;;;;;;;;;;;;;;;;6317539;22;19930;-92
2023/06/03 04:10:17;;;;;;;;;;;;;;;;;;6290667;22;19960;-94
2023/06/03 04:12:47;;;;;;;;;;;;;;;;;;6266126;22;20287;-92
2023/06/03 04:15:24;;;;;;;;;;;;;;;;;;6293108;22;19914;-91
2023/06/03 04:17:53;;;;;;;;;;;;;;;;;;6292249;22;19965;-92
2023/06/03 04:20:19;;;;;;;;;;;;;;;;;;6263832;22;20293;-93
2023/06/03 04:22:45;;;;;;;;;;;;;;;;;;6285588;22;20316;-95
2023/06/03 04:25:15;;;;;;;;;;;;;;;;;;6312373;22;19915;-95
2023/06/03 04:27:41;;;;;;;;;;;;;;;;;;6286160;22;19919;-96
2023/06/03 04:30:07;;;;;;;;;;;;;;;;;;6259737;22;20062;-95
2023/06/03 04:32:36;;;;;;;;;;;;;;;;;;6260906;22;19914;-95
2023/06/03 04:35:05;;;;;;;;;;;;;;;;;;6285582;22;20324;-93
2023/06/03 04:37:41;;;;;;;;;;;;;;;;;;;;;
2023/06/03 04:40:22;;;;;;;;;;;;;;;;;;6310490;22;19914;-91
2023/06/03 04:42:50;;;;;;;;;;;;;;;;;;6257115;22;19919;-93
2023/06/03 04:45:17;;;;;;;;;;;;;;;;;;6259043;22;19937;-93
2023/06/03 04:47:42;;;;;;;;;;;;;;;;;;6256478;22;19954;-94
2023/06/03 04:50:09;;;;;;;;;;;;;;;;;;6282695;22;19922;-94
2023/06/03 04:52:35;;;;;;;;;;;;;;;;;;6257581;22;20352;-96
2023/06/03 04:55:01;;;;;;;;;;;;;;;;;;6284883;22;19915;-95
2023/06/03 04:57:27;;;;;;;;;;;;;;;;;;6283745;22;19934;-95
2023/06/03 04:59:53;;;;;;;;;;;;;;;;;;6284324;22;19923;-96
2023/06/03 05:02:20;;;;;;;;;;;;;;;;;;6285506;22;19926;-96
2023/06/03 05:04:46;;;;;;;;;;;;;;;;;;6283555;22;19959;-95
2023/06/03 05:07:15;;;;;;;;;;;;;;;;;;6259551;22;19919;-95
2023/06/03 05:09:41;;;;;;;;;;;;;;;;;;6282404;22;19915;-91
2023/06/03 05:12:07;;;;;;;;;;;;;;;;;;6257930;22;19951;-93
2023/06/03 05:14:33;;;;;;;;;;;;;;;;;;6310461;22;20291;-94
2023/06/03 05:16:59;;;;;;;;;;;;;;;;;;6309703;22;19915;-94
2023/06/03 05:19:25;;;;;;;;;;;;;;;;;;6257756;22;19980;-95
2023/06/03 05:21:51;;;;;;;;;;;;;;;;;;6283289;22;19926;-94
2023/06/03 05:24:17;;;;;;;;;;;;;;;;;;6281317;22;19915;-95
2023/06/03 05:26:43;;;;;;;;;;;;;;;;;;6258476;22;20024;-95
2023/06/03 05:29:09;;;;;;;;;;;;;;;;;;6256535;22;19914;-95
2023/06/03 05:31:35;;;;;;;;;;;;;;;;;;6256984;22;19918;-94
2023/06/03 05:34:00;;;;;;;;;;;;;;;;;;6256704;22;19925;-94
2023/06/03 05:36:26;;;;;;;;;;;;;;;;;;6256690;22;19922;-93
2023/06/03 05:38:52;;;;;;;;;;;;;;;;;;6309099;22;19915;-93
2023/06/03 05:41:18;;;;;;;;;;;;;;;;;;6255842;22;19915;-91
2023/06/03 05:43:44;;;;;;;;;;;;;;;;;;6255579;22;19941;-94
2023/06/03 05:46:10;;;;;;;;;;;;;;;;;;6254992;22;19984;-95
2023/06/03 05:48:36;;;;;;;;;;;;;;;;;;6280851;22;20193;-94
2023/06/03 05:51:02;;;;;;;;;;;;;;;;;;6256934;22;19921;-95
2023/06/03 05:53:28;;;;;;;;;;;;;;;;;;6255664;22;19929;-94
2023/06/03 05:55:54;;;;;;;;;;;;;;;;;;6255091;22;19919;-94
2023/06/03 05:58:20;;;;;;;;;;;;;;;;;;6255333;22;19915;-94
2023/06/03 06:00:46;;;;;;;;;;;;;;;;;;6256737;22;19915;-94
2023/06/03 06:03:12;;;;;;;;;;;;;;;;;;6281003;22;20004;-93
2023/06/03 06:05:37;;;;;;;;;;;;;;;;;;6254458;22;19939;-95
2023/06/03 06:08:03;;;;;;;;;;;;;;;;;;6280407;22;20324;-93
2023/06/03 06:10:29;;;;;;;;;;;;;;;;;;6307984;22;19915;-94
2023/06/03 06:12:55;;;;;;;;;;;;;;;;;;6254835;22;20008;-94
2023/06/03 06:15:21;;;;;;;;;;;;;;;;;;6254839;22;19937;-92
2023/06/03 06:17:50;;;;;;;;;;;;;;;;;;6255701;22;19914;-95
2023/06/03 06:20:16;;;;;;;;;;;;;;;;;;6280474;22;19968;-96
2023/06/03 06:22:42;;;;;;;;;;;;;;;;;;6255047;22;20067;-95
2023/06/03 06:25:08;;;;;;;;;;;;;;;;;;6255372;22;19915;-96
2023/06/03 06:27:34;;;;;;;;;;;;;;;;;;6254505;22;20324;-95
2023/06/03 06:30:00;;;;;;;;;;;;;;;;;;6281215;22;19915;-96
2023/06/03 06:32:26;;;;;;;;;;;;;;;;;;6255258;22;19915;-94
2023/06/03 06:34:55;;;;;;;;;;;;;;;;;;6307609;22;19919;-94
2023/06/03 06:37:21;;;;;;;;;;;;;;;;;;6254304;22;19914;-95
2023/06/03 06:39:47;;;;;;;;;;;;;;;;;;6254577;22;19989;-95
2023/06/03 06:42:13;;;;;;;;;;;;;;;;;;6252857;22;20225;-92
2023/06/03 06:44:39;;;;;;;;;;;;;;;;;;6278791;22;19914;-93
2023/06/03 06:47:05;;;;;;;;;;;;;;;;;;6306268;22;20329;-90
2023/06/03 06:49:31;;;;;;;;;;;;;;;;;;6281139;22;19915;-89
2023/06/03 06:51:57;;;;;;;;;;;;;;;;;;6281474;22;19923;-93
2023/06/03 06:54:23;;;;;;;;;;;;;;;;;;6257596;22;19961;-95
2023/06/03 06:56:51;;;;;;;;;;;;;;;;;;6284230;22;20329;-94
2023/06/03 07:02:12;;;;;;;;;;;;;;;;;;6315017;22;19915;-94
2023/06/03 07:04:38;;;;;;;;;;;;;;;;;;6287537;22;19924;-92
2023/06/03 07:07:27;;;;;;;;;;;;;;;;;;6283092;22;19969;-96
2023/06/03 07:12:51;;;;;;;;;;;;;;;;;;6271831;22;20351;-94
2023/06/03 07:15:50;;;;;;;;;;;;;;;;;;6195076;23;20330;-93
2023/06/03 07:18:26;;;;;;;;;;;;;;;;;;6172891;23;19947;-93
2023/06/03 07:20:58;;;;;;;;;;;;;;;;;;6187814;23;19916;-95
2023/06/03 07:23:26;;;;;;;;;;;;;;;;;;6166148;23;19920;-94
2023/06/03 07:25:55;;;;;;;;;;;;;;;;;;6228016;22;19922;-96
2023/06/03 07:28:37;;;;;;;;;;;;;;;;;;;;;
2023/06/03 07:31:24;;;;;;;;;;;;;;;;;;6309426;22;20181;-95
2023/06/03 07:33:50;;;;;;;;;;;;;;;;;;6266439;22;19975;-95
2023/06/03 07:36:16;;;;;;;;;;;;;;;;;;6289267;22;19915;-96
2023/06/03 07:38:42;;;;;;;;;;;;;;;;;;6285369;22;20003;-95
2023/06/03 07:41:08;;;;;;;;;;;;;;;;;;6286124;22;19942;-93
2023/06/03 07:43:38;;;;;;;;;;;;;;;;;;6259827;22;19923;-95
2023/06/03 07:46:07;;;;;;;;;;;;;;;;;;6259363;22;19915;-95
2023/06/03 07:48:33;;;;;;;;;;;;;;;;;;6257937;22;20033;-95
2023/06/03 07:51:02;;;;;;;;;;;;;;;;;;6259877;22;19985;-94
2023/06/03 07:53:30;;;;;;;;;;;;;;;;;;6307766;22;20299;-94
2023/06/03 07:55:56;;;;;;;;;;;;;;;;;;6280677;22;19921;-95
2023/06/03 07:58:22;;;;;;;;;;;;;;;;;;6308633;22;19986;-94
2023/06/03 08:00:48;;;;;;;;;;;;;;;;;;6254921;22;19915;-93
2023/06/03 08:03:14;;;;;;;;;;;;;;;;;;6254759;22;19921;-93
2023/06/03 08:05:41;;;;;;;;;;;;;;;;;;6254984;22;19982;-92
2023/06/03 08:08:07;;;;;;;;;;;;;;;;;;6280300;22;19958;-95
2023/06/03 08:10:33;;;;;;;;;;;;;;;;;;6280957;22;19922;-94
2023/06/03 08:12:59;;;;;;;;;;;;;;;;;;6255036;22;19914;-95
2023/06/03 08:15:25;;;;;;;;;;;;;;;;;;6279626;22;19919;-91
2023/06/03 08:17:51;;;;;;;;;;;;;;;;;;6307270;22;19922;-92
2023/06/03 08:20:17;;;;;;;;;;;;;;;;;;6279484;22;20351;-92
2023/06/03 08:22:43;;;;;;;;;;;;;;;;;;6309353;22;19915;-91
2023/06/03 08:25:09;;;;;;;;;;;;;;;;;;6254935;22;19923;-93
2023/06/03 08:27:38;;;;;;;;;;;;;;;;;;6255873;22;19938;-96
2023/06/03 08:33:18;;;;;;;;;;;;;;;;;;6193505;23;19993;-96
2023/06/03 08:35:44;;;;;;;;;;;;;;;;;;6142303;23;20001;-95
2023/06/03 08:38:10;;;;;;;;;;;;;;;;;;6220811;22;19919;-92
2023/06/03 08:40:36;;;;;;;;;;;;;;;;;;6283330;22;19964;-95
2023/06/03 08:43:14;;;;;;;;;;;;;;;;;;6265155;22;19979;-96
2023/06/03 08:45:55;;;;;;;;;;;;;;;;;;6292160;22;19915;-94
2023/06/03 08:48:24;;;;;;;;;;;;;;;;;;6262277;22;20002;-93
2023/06/03 08:51:02;;;;;;;;;;;;;;;;;;6214549;22;19937;-94
2023/06/03 08:53:33;;;;;;;;;;;;;;;;;;6263621;22;19926;-95
2023/06/03 08:56:02;;;;;;;;;;;;;;;;;;6257088;22;19915;-95
2023/06/03 08:58:31;;;;;;;;;;;;;;;;;;6283057;22;19926;-93
2023/06/03 09:00:57;;;;;;;;;;;;;;;;;;6283416;22;19918;-93
2023/06/03 09:03:23;;;;;;;;;;;;;;;;;;6255519;22;19915;-93
2023/06/03 09:05:49;;;;;;;;;;;;;;;;;;6257024;22;19940;-94
2023/06/03 09:08:15;;;;;;;;;;;;;;;;;;6281478;22;19930;-93
2023/06/03 09:10:41;;;;;;;;;;;;;;;;;;6281142;22;19915;-92
2023/06/03 09:13:07;;;;;;;;;;;;;;;;;;6281385;22;20279;-92
2023/06/03 09:15:33;;;;;;;;;;;;;;;;;;6255720;22;19946;-92
2023/06/03 09:17:58;;;;;;;;;;;;;;;;;;6309074;22;19919;-92
2023/06/03 09:20:24;;;;;;;;;;;;;;;;;;6256070;22;19919;-93
2023/06/03 09:22:50;;;;;;;;;;;;;;;;;;6281272;22;19915;-90
2023/06/03 09:25:17;;;;;;;;;;;;;;;;;;6284769;22;19934;-91
2023/06/03 09:27:43;;;;;;;;;;;;;;;;;;6307795;22;20347;-91
2023/06/03 09:30:09;;;;;;;;;;;;;;;;;;6255702;22;20010;-91
2023/06/03 09:32:35;;;;;;;;;;;;;;;;;;6308110;22;19993;-92
2023/06/03 09:35:04;;;;;;;;;;;;;;;;;;6254759;22;19915;-91
2023/06/03 09:37:30;;;;;;;;;;;;;;;;;;6254940;22;19950;-93
2023/06/03 09:39:56;;;;;;;;;;;;;;;;;;6280551;22;19915;-93
2023/06/03 09:42:22;;;;;;;;;;;;;;;;;;6281003;22;19925;-93
2023/06/03 09:44:55;;;;;;;;;;;;;;;;;;6283073;22;19915;-93
2023/06/03 09:47:24;;;;;;;;;;;;;;;;;;6251705;22;19927;-91
2023/06/03 09:49:50;;;;;;;;;;;;;;;;;;6253653;22;19915;-92
2023/06/03 09:52:16;;;;;;;;;;;;;;;;;;6255795;22;19921;-93
2023/06/03 09:54:42;;;;;;;;;;;;;;;;;;6254996;22;20299;-93
2023/06/03 09:57:08;;;;;;;;;;;;;;;;;;6254830;22;19914;-90
2023/06/03 09:59:33;;;;;;;;;;;;;;;;;;6279977;22;20289;-91
2023/06/03 10:01:59;;;;;;;;;;;;;;;;;;6279463;22;20256;-92
2023/06/03 10:04:25;;;;;;;;;;;;;;;;;;6279594;22;20351;-89
2023/06/03 10:06:51;;;;;;;;;;;;;;;;;;6278586;22;19919;-90
2023/06/03 10:09:18;;;;;;;;;;;;;;;;;;6253496;22;19918;-90
2023/06/03 10:11:44;;;;;;;;;;;;;;;;;;6279071;22;19915;-89
2023/06/03 10:14:09;;;;;;;;;;;;;;;;;;6279562;22;19922;-90
2023/06/03 10:16:35;;;;;;;;;;;;;;;;;;6252342;22;20252;-90
2023/06/03 10:19:01;;;;;;;;;;;;;;;;;;6278496;22;19921;-90
2023/06/03 10:21:28;;;;;;;;;;;;;;;;;;6293466;22;19915;-89
2023/06/03 10:23:54;;;;;;;;;;;;;;;;;;6280461;22;19915;-87
2023/06/03 10:26:21;;;;;;;;;;;;;;;;;;6256996;22;19961;-89
2023/06/03 10:28:48;;;;;;;;;;;;;;;;;;6255417;22;19941;-89
2023/06/03 10:31:14;;;;;;;;;;;;;;;;;;6308763;22;19915;-89
2023/06/03 10:33:40;;;;;;;;;;;;;;;;;;6308252;22;20362;-89
2023/06/03 10:36:06;;;;;;;;;;;;;;;;;;6255563;22;19915;-89
2023/06/03 10:38:32;;;;;;;;;;;;;;;;;;6308675;22;19969;-90
2023/06/03 10:40:58;;;;;;;;;;;;;;;;;;6306956;22;19915;-89
2023/06/03 10:43:24;;;;;;;;;;;;;;;;;;6280808;22;20245;-90
2023/06/03 10:45:50;;;;;;;;;;;;;;;;;;6281895;22;19922;-93
2023/06/03 10:48:16;;;;;;;;;;;;;;;;;;6256779;22;19968;-95
2023/06/03 10:50:42;;;;;;;;;;;;;;;;;;6279149;22;19915;-95
2023/06/03 10:53:14;;;;;;;;;;;;;;;;;;6257867;22;20325;-94
2023/06/03 10:55:40;;;;;;;;;;;;;;;;;;6282640;22;19918;-94
2023/06/03 10:58:06;;;;;;;;;;;;;;;;;;6256514;22;19946;-94
2023/06/03 11:00:32;;;;;;;;;;;;;;;;;;6256887;22;20325;-93
2023/06/03 11:02:58;;;;;;;;;;;;;;;;;;6281950;22;19950;-93
2023/06/03 11:05:24;;;;;;;;;;;;;;;;;;6281275;22;19921;-92
2023/06/03 11:07:50;;;;;;;;;;;;;;;;;;6281674;22;19973;-92
2023/06/03 11:10:16;;;;;;;;;;;;;;;;;;6256797;22;19942;-93
2023/06/03 11:12:42;;;;;;;;;;;;;;;;;;6255906;22;19922;-93
2023/06/03 11:15:08;;;;;;;;;;;;;;;;;;6255978;22;19921;-92
2023/06/03 11:17:34;;;;;;;;;;;;;;;;;;6282293;22;19942;-93
2023/06/03 11:20:05;;;;;;;;;;;;;;;;;;6288791;22;19949;-93
2023/06/03 11:22:31;;;;;;;;;;;;;;;;;;6283212;22;19915;-95
2023/06/03 11:25:00;;;;;;;;;;;;;;;;;;6256178;22;19934;-93
2023/06/03 11:27:26;;;;;;;;;;;;;;;;;;6281715;22;19919;-92
2023/06/03 11:29:52;;;;;;;;;;;;;;;;;;6255722;22;20288;-89
2023/06/03 11:32:18;;;;;;;;;;;;;;;;;;6254746;22;20329;-88
2023/06/03 11:34:44;;;;;;;;;;;;;;;;;;6309567;22;19998;-92
2023/06/03 11:37:11;;;;;;;;;;;;;;;;;;6256217;22;19989;-95
2023/06/03 11:39:37;;;;;;;;;;;;;;;;;;6254998;22;19919;-88
2023/06/03 11:42:03;;;;;;;;;;;;;;;;;;6255646;22;20329;-90
2023/06/03 11:44:29;;;;;;;;;;;;;;;;;;6280636;22;19914;-89
2023/06/03 11:46:55;;;;;;;;;;;;;;;;;;6280323;22;19980;-88
2023/06/03 11:49:23;;;;;;;;;;;;;;;;;;6307933;22;19941;-89
2023/06/03 11:51:49;;;;;;;;;;;;;;;;;;6281326;22;19922;-90
2023/06/03 11:54:16;;;;;;;;;;;;;;;;;;6256027;22;19951;-92
2023/06/03 11:56:42;;;;;;;;;;;;;;;;;;6308650;22;19914;-92
2023/06/03 11:59:08;;;;;;;;;;;;;;;;;;6308687;22;20224;-90
2023/06/03 12:01:34;;;;;;;;;;;;;;;;;;6256127;22;19938;-93
2023/06/03 12:04:00;;;;;;;;;;;;;;;;;;6255759;22;20077;-93
2023/06/03 12:06:26;;;;;;;;;;;;;;;;;;6255203;22;20029;-93
2023/06/03 12:08:52;;;;;;;;;;;;;;;;;;6255752;22;19918;-92
2023/06/03 12:11:18;;;;;;;;;;;;;;;;;;6255612;22;19915;-93
2023/06/03 12:13:44;;;;;;;;;;;;;;;;;;6309308;22;20303;-92
2023/06/03 12:16:10;;;;;;;;;;;;;;;;;;6281812;22;19915;-88
2023/06/03 12:18:36;;;;;;;;;;;;;;;;;;6281481;22;20358;-92
2023/06/03 12:21:02;;;;;;;;;;;;;;;;;;6281747;22;19915;-93
2023/06/03 12:23:30;;;;;;;;;;;;;;;;;;6255758;22;19950;-93
2023/06/03 12:25:56;;;;;;;;;;;;;;;;;;6254980;22;19919;-92
2023/06/03 12:28:28;;;;;;;;;;;;;;;;;;6281900;22;19993;-93
2023/06/03 12:30:54;;;;;;;;;;;;;;;;;;6281243;22;19950;-93
2023/06/03 12:33:20;;;;;;;;;;;;;;;;;;6281374;22;19915;-94
2023/06/03 12:35:46;;;;;;;;;;;;;;;;;;6256191;22;20280;-91
2023/06/03 12:38:12;;;;;;;;;;;;;;;;;;6255977;22;20372;-94
2023/06/03 12:40:38;;;;;;;;;;;;;;;;;;6255210;22;19946;-95
2023/06/03 12:43:04;;;;;;;;;;;;;;;;;;6255832;22;19914;-94
2023/06/03 12:45:30;;;;;;;;;;;;;;;;;;6255694;22;19982;-93
2023/06/03 12:47:56;;;;;;;;;;;;;;;;;;6280814;22;20171;-92
2023/06/03 12:50:23;;;;;;;;;;;;;;;;;;6281207;22;20390;-93
2023/06/03 12:52:48;;;;;;;;;;;;;;;;;;6281921;22;19968;-91
2023/06/03 12:55:20;;;;;;;;;;;;;;;;;;6282538;22;20309;-91
2023/06/03 12:57:47;;;;;;;;;;;;;;;;;;6255954;22;20220;-92
2023/06/03 13:00:18;;;;;;;;;;;;;;;;;;6281136;22;19960;-94
2023/06/03 13:02:45;;;;;;;;;;;;;;;;;;6279261;22;19934;-93
2023/06/03 13:05:11;;;;;;;;;;;;;;;;;;6253985;22;19999;-92
2023/06/03 13:07:36;;;;;;;;;;;;;;;;;;6280627;22;19922;-92
2023/06/03 13:10:03;;;;;;;;;;;;;;;;;;6281159;22;19939;-93
2023/06/03 13:12:29;;;;;;;;;;;;;;;;;;6308540;22;19991;-94
2023/06/03 13:14:55;;;;;;;;;;;;;;;;;;6281207;22;20063;-95
2023/06/03 13:17:21;;;;;;;;;;;;;;;;;;6280766;22;19915;-94
2023/06/03 13:19:47;;;;;;;;;;;;;;;;;;6255033;22;19915;-92
2023/06/03 13:22:13;;;;;;;;;;;;;;;;;;6255486;22;19915;-94
2023/06/03 13:24:39;;;;;;;;;;;;;;;;;;6308285;22;19978;-94
2023/06/03 13:27:05;;;;;;;;;;;;;;;;;;6255998;22;19923;-95
2023/06/03 13:29:31;;;;;;;;;;;;;;;;;;6281552;22;19922;-93
2023/06/03 13:31:57;;;;;;;;;;;;;;;;;;6281294;22;19944;-93
2023/06/03 13:34:23;;;;;;;;;;;;;;;;;;6280808;22;19915;-92
2023/06/03 13:36:49;;;;;;;;;;;;;;;;;;6255565;22;19930;-94
2023/06/03 13:39:17;;;;;;;;;;;;;;;;;;6255826;22;19919;-96
2023/06/03 13:41:46;;;;;;;;;;;;;;;;;;6254490;22;20281;-93
2023/06/03 13:44:12;;;;;;;;;;;;;;;;;;6255001;22;19914;-93
2023/06/03 13:46:38;;;;;;;;;;;;;;;;;;6279657;22;20252;-93
2023/06/03 13:49:04;;;;;;;;;;;;;;;;;;6257901;22;19903;-90
2023/06/03 13:51:30;;;;;;;;;;;;;;;;;;6255699;22;19922;-94
2023/06/03 13:53:57;;;;;;;;;;;;;;;;;;6282892;22;20344;-93
2023/06/03 13:56:23;;;;;;;;;;;;;;;;;;6308384;22;19945;-94
2023/06/03 13:58:49;;;;;;;;;;;;;;;;;;6254708;22;19914;-93
2023/06/03 14:01:16;;;;;;;;;;;;;;;;;;6279905;22;19918;-92
2023/06/03 14:03:42;;;;;;;;;;;;;;;;;;6280898;22;20273;-93
2023/06/03 14:06:09;;;;;;;;;;;;;;;;;;6280427;22;19919;-94
2023/06/03 14:08:35;;;;;;;;;;;;;;;;;;6255724;22;19923;-94
2023/06/03 14:11:04;;;;;;;;;;;;;;;;;;6271554;22;20282;-94
2023/06/03 14:13:30;;;;;;;;;;;;;;;;;;6260383;22;19922;-95
2023/06/03 14:15:56;;;;;;;;;;;;;;;;;;6268677;22;19915;-95
2023/06/03 14:18:31;;;;;;;;;;;;;;;;;;6263369;22;19962;-94
2023/06/03 14:20:56;;;;;;;;;;;;;;;;;;6260892;22;19915;-95
2023/06/03 14:23:28;;;;;;;;;;;;;;;;;;6291707;22;20181;-95
2023/06/03 14:25:54;;;;;;;;;;;;;;;;;;6261061;22;19915;-95
2023/06/03 14:28:22;;;;;;;;;;;;;;;;;;6288946;22;20333;-95
2023/06/03 14:30:48;;;;;;;;;;;;;;;;;;6267336;22;20340;-96
2023/06/03 14:33:14;;;;;;;;;;;;;;;;;;6284616;22;19922;-94
2023/06/03 14:35:40;;;;;;;;;;;;;;;;;;6288794;22;19915;-96
2023/06/03 14:38:19;;;;;;;;;;;;;;;;;;6293279;22;19942;-95
2023/06/03 14:41:03;;;;;;;;;;;;;;;;;;6293307;22;19922;-93
2023/06/03 14:43:32;;;;;;;;;;;;;;;;;;6261680;22;19915;-94
2023/06/03 14:46:06;;;;;;;;;;;;;;;;;;6286502;22;19915;-94
2023/06/03 14:48:32;;;;;;;;;;;;;;;;;;6260364;22;20360;-94
2023/06/03 14:51:08;;;;;;;;;;;;;;;;;;;;;
2023/06/03 14:53:52;;;;;;;;;;;;;;;;;;;;;
2023/06/03 14:56:22;;;;;;;;;;;;;;;;;;6292261;22;19915;-95
2023/06/03 14:58:51;;;;;;;;;;;;;;;;;;6294220;22;19979;-96
2023/06/03 15:01:17;;;;;;;;;;;;;;;;;;6290948;22;19926;-96
2023/06/03 15:03:56;;;;;;;;;;;;;;;;;;6267761;22;20292;-96
2023/06/03 15:06:22;;;;;;;;;;;;;;;;;;6288652;22;19923;-95
2023/06/03 15:08:48;;;;;;;;;;;;;;;;;;6268386;22;19942;-95
2023/06/03 15:11:17;;;;;;;;;;;;;;;;;;6273452;22;20237;-96
2023/06/03 15:13:46;;;;;;;;;;;;;;;;;;6270918;22;19915;-94
2023/06/03 15:16:12;;;;;;;;;;;;;;;;;;6297316;22;19919;-95
2023/06/03 15:18:41;;;;;;;;;;;;;;;;;;6296805;22;19938;-93
2023/06/03 15:21:10;;;;;;;;;;;;;;;;;;6272265;22;19940;-94
2023/06/03 15:23:36;;;;;;;;;;;;;;;;;;6297777;22;19978;-94
2023/06/03 15:26:02;;;;;;;;;;;;;;;;;;6267612;22;19959;-92
2023/06/03 15:28:27;;;;;;;;;;;;;;;;;;6291656;22;19938;-92
2023/06/03 15:30:59;;;;;;;;;;;;;;;;;;6298541;22;19915;-94
2023/06/03 15:33:27;;;;;;;;;;;;;;;;;;6256477;22;19923;-96
2023/06/03 15:35:53;;;;;;;;;;;;;;;;;;6256823;22;20247;-93
2023/06/03 15:38:22;;;;;;;;;;;;;;;;;;6262112;22;19929;-94
2023/06/03 15:40:52;;;;;;;;;;;;;;;;;;6277842;22;19926;-96
2023/06/03 15:46:32;;;;;;;;;;;;;;;;;;6272006;22;19925;-93
2023/06/03 15:49:02;;;;;;;;;;;;;;;;;;6283091;22;19985;-94
2023/06/03 15:51:30;;;;;;;;;;;;;;;;;;6282543;22;19922;-95
2023/06/03 15:53:56;;;;;;;;;;;;;;;;;;6256574;22;19926;-95
2023/06/03 15:56:25;;;;;;;;;;;;;;;;;;6282503;22;19950;-96
2023/06/03 15:58:54;;;;;;;;;;;;;;;;;;6257238;22;19950;-94
2023/06/03 16:01:29;;;;;;;;;;;;;;;;;;6314409;22;19915;-94
2023/06/03 16:03:55;;;;;;;;;;;;;;;;;;6291302;22;20341;-95
2023/06/03 16:06:23;;;;;;;;;;;;;;;;;;6286247;22;19956;-95
2023/06/03 16:08:49;;;;;;;;;;;;;;;;;;6287413;22;19925;-96
2023/06/03 16:11:15;;;;;;;;;;;;;;;;;;6259456;22;19926;-96
2023/06/03 16:16:30;;;;;;;;;;;;;;;;;;6309026;22;19915;-96
2023/06/03 16:18:58;;;;;;;;;;;;;;;;;;6296395;22;19915;-95
2023/06/03 16:24:33;;;;;;;;;;;;;;;;;;6307727;22;20175;-96
2023/06/03 16:30:06;;;;;;;;;;;;;;;;;;;;;
2023/06/03 16:38:23;;;;;;;;;;;;;;;;;;6318204;22;19935;-96
2023/06/03 16:53:51;;;;;;;;;;;;;;;;;;6280722;22;19919;-96
2023/06/03 16:56:17;;;;;;;;;;;;;;;;;;6227125;22;20258;-95
2023/06/03 16:58:43;;;;;;;;;;;;;;;;;;6226760;22;19915;-96
2023/06/03 17:01:09;;;;;;;;;;;;;;;;;;6226449;22;19919;-96
2023/06/03 17:03:35;;;;;;;;;;;;;;;;;;6226154;22;20074;-94
2023/06/03 17:06:03;;;;;;;;;;;;;;;;;;6257669;22;19919;-94
2023/06/03 17:08:50;;;;;;;;;;;;;;;;;;6287943;22;19972;-95
2023/06/03 17:17:03;;;;;;;;;;;;;;;;;;6305188;22;19906;-96
2023/06/03 17:19:38;;;;;;;;;;;;;;;;;;6290477;22;19946;-94
2023/06/03 17:22:05;;;;;;;;;;;;;;;;;;6312788;22;20176;-95
2023/06/03 17:24:43;;;;;;;;;;;;;;;;;;6290885;22;19926;-96
2023/06/03 17:27:12;;;;;;;;;;;;;;;;;;6263176;22;19923;-96
2023/06/03 17:29:41;;;;;;;;;;;;;;;;;;6263682;22;19915;-96
2023/06/03 17:35:09;;;;;;;;;;;;;;;;;;6230106;22;20020;-95
2023/06/03 17:37:58;;;;;;;;;;;;;;;;;;6180090;23;19915;-96
2023/06/03 17:40:23;;;;;;;;;;;;;;;;;;6230993;23;19937;-96
2023/06/03 17:42:49;;;;;;;;;;;;;;;;;;6228080;23;20307;-96
2023/06/03 17:45:25;;;;;;;;;;;;;;;;;;6227865;23;19923;-96
2023/06/03 17:48:00;;;;;;;;;;;;;;;;;;6202585;23;20026;-94